Terminal Aerodrome Forecast
Issued by NWS Tulsa, OK

Home | Current Version | Previous Version | Text Only | Print | Product List | Glossary On
Versions: 1 2 3 4 5 6 7 8 9 10 11 12 13 14 15 16 17 18 19 20 21 22 23 24 25
317
FTUS44 KTSA 272320
TAFTUL
TAF
KTUL 272320Z 2800/2824 16011KT P6SM FEW050 BKN250
      TEMPO 2801/2804 3SM TSRA BKN025CB
     FM280400 17008KT P6SM BKN040 BKN250
     FM280900 19008KT P6SM BKN020
     FM281500 20008KT P6SM SCT250=

USA.gov is the U.S. government's official web portal to all federal, state and local government web resources and services.